Time;durP1;ratioP1;P1;durP2;ratioP2;P2;SDS_P1;SDS_P2;PMS_P1;PMS_P2;Temp;Humidity;BMP_temperature;BMP_pressure;BME280_temperature;BME280_humidity;BME280_pressure;Samples;Min_cycle;Max_cycle;Signal;HPM_P1;HPM_P2
2022/08/09 00:02:37;;;;;;;5.43;2.47;;;22.40;50.90;;;;;;5099764;28;20605;-76
2022/08/09 00:05:17;;;;;;;6.53;2.00;;;22.40;51.00;;;;;;5098265;27;20926;-78
2022/08/09 00:08:09;;;;;;;7.10;2.47;;;22.30;51.00;;;;;;5097087;27;20464;-78
2022/08/09 00:10:38;;;;;;;4.80;1.93;;;22.30;51.10;;;;;;5099171;27;20550;-78
2022/08/09 00:13:08;;;;;;;7.03;2.37;;;22.30;51.10;;;;;;5082227;28;20490;-78
2022/08/09 00:15:45;;;;;;;5.27;2.50;;;22.20;51.20;;;;;;5078220;27;20473;-78
2022/08/09 00:18:30;;;;;;;4.50;2.00;;;22.20;51.20;;;;;;5095478;27;20460;-79
2022/08/09 00:21:04;;;;;;;7.87;2.27;;;22.20;51.20;;;;;;5100342;28;20966;-77
2022/08/09 00:23:37;;;;;;;4.50;2.07;;;22.10;51.30;;;;;;5097732;27;20620;-78
2022/08/09 00:26:26;;;;;;;5.97;2.00;;;22.10;51.30;;;;;;5098551;27;20463;-76
2022/08/09 00:29:01;;;;;;;6.47;2.30;;;22.00;51.40;;;;;;5080034;28;20559;-79
2022/08/09 00:31:30;;;;;;;4.93;2.23;;;21.90;51.40;;;;;;5094510;28;21258;-78
2022/08/09 00:34:19;;;;;;;7.13;2.30;;;21.90;51.50;;;;;;5080876;28;20480;-76
2022/08/09 00:36:47;;;;;;;5.20;2.00;;;21.90;51.60;;;;;;5097216;27;20461;-79
2022/08/09 00:39:16;;;;;;;4.90;2.00;;;21.80;51.70;;;;;;5098115;28;21006;-79
2022/08/09 00:42:05;;;;;;;4.27;2.10;;;21.80;51.70;;;;;;5080564;28;20481;-77
2022/08/09 00:44:54;;;;;;;4.30;2.00;;;21.70;51.70;;;;;;5086579;28;20455;-78
2022/08/09 00:47:22;;;;;;;6.23;2.00;;;21.60;51.90;;;;;;5081408;28;20993;-78
2022/08/09 00:49:52;;;;;;;4.83;2.10;;;21.60;52.00;;;;;;5099406;27;20536;-79
2022/08/09 00:52:23;;;;;;;8.77;1.83;;;21.50;52.10;;;;;;5082473;28;20597;-77
2022/08/09 00:54:58;;;;;;;6.23;2.63;;;21.50;52.30;;;;;;5085527;28;21077;-79
2022/08/09 00:57:28;;;;;;;5.60;2.03;;;21.40;52.40;;;;;;5100464;28;20465;-77
2022/08/09 01:00:08;;;;;;;7.13;2.60;;;21.50;52.50;;;;;;5103197;28;20573;-76
2022/08/09 01:02:50;;;;;;;5.27;2.20;;;21.50;52.60;;;;;;5095190;27;20477;-77
2022/08/09 01:05:38;;;;;;;4.20;2.07;;;21.40;52.60;;;;;;5077085;28;21261;-79
2022/08/09 01:08:29;;;;;;;8.50;2.90;;;21.40;52.70;;;;;;5102300;27;20737;-78
2022/08/09 01:11:10;;;;;;;5.73;2.40;;;21.40;52.70;;;;;;5099423;27;20524;-78
2022/08/09 01:13:49;;;;;;;8.10;2.50;;;21.30;52.80;;;;;;5103848;27;20500;-79
2022/08/09 01:16:36;;;;;;;5.33;2.40;;;21.30;52.80;;;;;;5085879;28;20480;-77
2022/08/09 01:19:14;;;;;;;4.50;1.90;;;21.20;52.90;;;;;;5093260;28;20460;-75
2022/08/09 01:22:12;;;;;;;4.80;2.33;;;21.20;52.90;;;;;;5097286;28;20492;-77
2022/08/09 01:24:56;;;;;;;7.13;2.43;;;21.10;52.90;;;;;;5047735;28;20453;-77
2022/08/09 01:27:30;;;;;;;5.00;2.00;;;21.00;52.90;;;;;;5079848;28;20549;-77
2022/08/09 01:30:03;;;;;;;4.97;2.43;;;21.00;53.00;;;;;;5075701;28;20490;-79
2022/08/09 01:32:35;;;;;;;5.30;2.03;;;20.90;52.90;;;;;;5080856;28;20482;-79
2022/08/09 01:35:13;;;;;;;7.73;2.53;;;20.90;53.00;;;;;;5081677;28;21476;-78
2022/08/09 01:38:04;;;;;;;7.70;2.23;;;20.80;53.00;;;;;;5078901;28;20462;-77
2022/08/09 01:40:50;;;;;;;5.20;2.00;;;20.80;53.00;;;;;;5075145;28;20446;-78
2022/08/09 01:43:34;;;;;;;7.10;2.17;;;20.70;53.00;;;;;;5075689;28;20478;-78
2022/08/09 01:46:21;;;;;;;6.00;2.53;;;20.70;53.00;;;;;;5073299;28;20488;-77
2022/08/09 01:48:55;;;;;;;6.20;2.50;;;20.60;53.20;;;;;;5078759;28;20854;-77
2022/08/09 01:51:25;;;;;;;8.10;2.80;;;20.60;53.30;;;;;;5073520;28;20486;-78
2022/08/09 01:53:56;;;;;;;9.77;2.77;;;20.60;53.40;;;;;;5078803;28;20465;-77
2022/08/09 01:56:27;;;;;;;5.70;2.03;;;20.70;53.30;;;;;;5061423;28;20470;-77
2022/08/09 01:58:58;;;;;;;5.37;2.63;;;20.60;53.40;;;;;;5080611;28;20472;-78
2022/08/09 02:01:28;;;;;;;9.70;2.60;;;20.50;53.40;;;;;;5076763;28;20492;-78
2022/08/09 02:04:17;;;;;;;4.83;2.17;;;20.50;53.50;;;;;;5075108;28;20465;-78
2022/08/09 02:09:35;;;;;;;8.17;2.50;;;20.50;53.60;;;;;;5077445;28;20510;-77
2022/08/09 02:12:11;;;;;;;7.30;3.10;;;20.40;53.50;;;;;;5079313;28;20848;-78
2022/08/09 02:14:49;;;;;;;6.67;2.50;;;20.30;53.60;;;;;;5078165;28;22803;-76
2022/08/09 02:17:21;;;;;;;8.77;2.77;;;20.20;53.60;;;;;;5064537;28;21033;-78
2022/08/09 02:20:10;;;;;;;6.10;2.67;;;20.20;53.70;;;;;;5078566;28;20460;-77
2022/08/09 02:22:47;;;;;;;4.90;2.60;;;20.10;53.80;;;;;;5079329;28;20487;-77
2022/08/09 02:25:21;;;;;;;9.00;2.53;;;20.10;53.80;;;;;;5077747;28;20455;-77
2022/08/09 02:27:54;;;;;;;4.60;2.20;;;20.10;53.80;;;;;;5083265;28;20460;-77
2022/08/09 02:30:37;;;;;;;5.20;2.40;;;20.10;53.80;;;;;;5083006;28;21101;-76
2022/08/09 02:33:10;;;;;;;5.33;2.20;;;20.00;53.80;;;;;;5076506;28;20888;-77
2022/08/09 02:35:45;;;;;;;5.30;2.03;;;20.00;53.80;;;;;;5081537;28;20493;-77
2022/08/09 02:38:34;;;;;;;5.43;2.33;;;20.00;53.80;;;;;;5064567;28;20460;-77
2022/08/09 02:41:07;;;;;;;7.90;2.40;;;19.90;53.90;;;;;;5058487;28;20552;-77
2022/08/09 02:43:37;;;;;;;11.40;2.57;;;19.90;53.90;;;;;;5081706;28;20466;-77
2022/08/09 02:46:26;;;;;;;6.87;2.77;;;19.90;53.90;;;;;;5057682;28;20469;-77
2022/08/09 02:48:58;;;;;;;6.93;2.50;;;19.90;53.90;;;;;;5079814;28;20459;-78
2022/08/09 02:51:31;;;;;;;7.97;2.60;;;19.80;54.00;;;;;;5076912;28;20482;-77
2022/08/09 02:54:09;;;;;;;5.60;2.50;;;19.80;54.00;;;;;;5080091;28;20466;-76
2022/08/09 02:56:42;;;;;;;5.87;2.27;;;19.80;54.00;;;;;;5080456;28;20485;-78
2022/08/09 02:59:20;;;;;;;5.37;2.33;;;19.70;54.00;;;;;;5081252;28;20471;-78
2022/08/09 03:02:05;;;;;;;5.93;2.33;;;19.70;54.10;;;;;;5077002;28;20528;-78
2022/08/09 03:04:39;;;;;;;7.03;2.70;;;19.70;54.10;;;;;;5084415;28;20495;-78
2022/08/09 03:07:08;;;;;;;6.40;2.30;;;19.70;54.10;;;;;;5090237;28;20455;-78
2022/08/09 03:09:43;;;;;;;5.50;2.50;;;19.60;54.10;;;;;;5078128;28;20448;-78
2022/08/09 03:12:24;;;;;;;8.37;2.80;;;19.60;54.20;;;;;;5075751;28;20594;-76
2022/08/09 03:14:53;;;;;;;5.20;2.40;;;19.60;54.30;;;;;;5081127;28;20479;-76
2022/08/09 03:17:23;;;;;;;6.77;2.47;;;19.50;54.40;;;;;;5079487;28;20479;-76
2022/08/09 03:19:58;;;;;;;10.90;2.83;;;19.60;54.40;;;;;;5066645;28;21015;-76
2022/08/09 03:22:39;;;;;;;7.00;2.60;;;19.50;54.40;;;;;;5079321;28;20503;-78
2022/08/09 03:25:10;;;;;;;7.30;2.47;;;19.50;54.40;;;;;;5080533;28;20486;-78
2022/08/09 03:28:00;;;;;;;5.60;2.67;;;19.50;54.50;;;;;;5084192;28;20463;-78
2022/08/09 03:30:29;;;;;;;5.10;2.23;;;19.50;54.60;;;;;;5063799;28;20520;-77
2022/08/09 03:33:06;;;;;;;7.77;2.67;;;19.50;54.60;;;;;;5082650;28;20493;-78
2022/08/09 03:35:48;;;;;;;6.47;2.93;;;19.50;54.70;;;;;;5079375;28;20498;-78
2022/08/09 03:38:37;;;;;;;9.50;2.53;;;19.40;54.70;;;;;;5079049;28;20470;-77
2022/08/09 03:41:11;;;;;;;7.50;2.80;;;19.40;54.80;;;;;;5078655;28;20485;-78
2022/08/09 03:43:43;;;;;;;5.80;2.40;;;19.40;54.90;;;;;;5077288;28;20520;-76
2022/08/09 03:46:31;;;;;;;8.50;2.50;;;19.50;55.00;;;;;;5073253;28;20504;-77
2022/08/09 03:49:02;;;;;;;8.03;2.40;;;19.50;55.00;;;;;;5077065;28;20461;-78
2022/08/09 03:51:39;;;;;;;5.60;2.40;;;19.50;55.10;;;;;;5076441;28;20556;-77
2022/08/09 03:54:29;;;;;;;7.10;2.40;;;19.50;55.10;;;;;;5089712;28;20906;-78
2022/08/09 03:57:00;;;;;;;6.90;2.50;;;19.40;55.10;;;;;;5080366;28;20451;-76
2022/08/09 03:59:31;;;;;;;8.53;3.00;;;19.30;55.20;;;;;;5075745;28;20553;-79
2022/08/09 04:02:20;;;;;;;6.07;3.07;;;19.30;55.20;;;;;;5077261;28;20489;-75
2022/08/09 04:04:59;;;;;;;5.60;2.43;;;19.30;55.20;;;;;;5083651;28;20952;-76
2022/08/09 04:07:32;;;;;;;5.10;2.57;;;19.30;55.20;;;;;;5064000;28;20482;-76
2022/08/09 04:10:21;;;;;;;9.83;2.70;;;19.20;55.20;;;;;;5080245;28;20461;-78
2022/08/09 04:12:59;;;;;;;6.53;2.90;;;19.20;55.30;;;;;;5081316;28;20487;-77
2022/08/09 04:15:31;;;;;;;8.17;2.87;;;19.20;55.50;;;;;;5073515;28;21012;-77
2022/08/09 04:18:19;;;;;;;6.70;2.33;;;19.20;55.50;;;;;;5073092;28;20465;-77
2022/08/09 04:20:50;;;;;;;8.17;3.17;;;19.20;55.50;;;;;;5075953;28;20496;-77
2022/08/09 04:23:18;;;;;;;5.40;2.80;;;19.20;55.50;;;;;;5078893;28;20485;-78
2022/08/09 04:25:52;;;;;;;6.63;2.57;;;19.20;55.50;;;;;;5081435;28;20446;-77
2022/08/09 04:28:21;;;;;;;22.13;2.87;;;19.20;55.50;;;;;;5074629;28;20460;-77
2022/08/09 04:31:01;;;;;;;5.90;2.83;;;19.10;55.50;;;;;;5079919;28;20478;-78
2022/08/09 04:33:37;;;;;;;5.87;2.50;;;19.10;55.50;;;;;;5062110;28;20454;-78
2022/08/09 04:36:27;;;;;;;5.20;2.30;;;19.10;55.60;;;;;;5074502;28;20481;-78
2022/08/09 04:38:57;;;;;;;6.50;2.63;;;19.00;55.70;;;;;;5078308;28;20844;-78
2022/08/09 04:41:26;;;;;;;6.10;2.50;;;19.10;55.80;;;;;;5061176;28;20525;-79
2022/08/09 04:44:02;;;;;;;6.80;2.80;;;19.10;55.80;;;;;;5079558;28;20476;-76
2022/08/09 04:46:37;;;;;;;11.50;2.80;;;19.10;55.90;;;;;;5073075;28;20500;-78
2022/08/09 04:49:25;;;;;;;7.87;2.70;;;19.10;55.90;;;;;;5054021;28;20466;-79
2022/08/09 04:52:14;;;;;;;8.30;3.30;;;19.10;55.90;;;;;;5054498;28;20488;-78
2022/08/09 04:54:52;;;;;;;5.77;2.50;;;19.10;56.00;;;;;;5073222;28;20505;-78
2022/08/09 04:57:20;;;;;;;5.70;3.37;;;19.20;56.20;;;;;;5060036;28;20484;-78
2022/08/09 04:59:52;;;;;;;6.77;2.87;;;19.30;56.30;;;;;;5074008;28;20512;-78
2022/08/09 05:02:20;;;;;;;5.10;2.63;;;19.50;56.30;;;;;;5056313;28;20471;-78
2022/08/09 05:04:48;;;;;;;8.37;2.87;;;19.60;56.40;;;;;;5077270;28;20461;-78
2022/08/09 05:07:24;;;;;;;7.47;2.70;;;19.80;56.30;;;;;;5076214;28;20459;-78
2022/08/09 05:09:59;;;;;;;6.20;2.80;;;20.00;56.20;;;;;;5077009;28;20453;-78
2022/08/09 05:12:30;;;;;;;8.30;2.63;;;20.10;56.30;;;;;;5096319;28;20471;-78
2022/08/09 05:15:00;;;;;;;5.30;2.47;;;20.40;56.60;;;;;;5074761;28;20499;-79
2022/08/09 05:17:30;;;;;;;17.53;3.23;;;20.70;56.80;;;;;;5079166;28;20514;-78
2022/08/09 05:20:18;;;;;;;5.83;2.97;;;21.40;56.20;;;;;;5077040;28;20498;-78
2022/08/09 05:22:49;;;;;;;7.20;2.60;;;22.40;55.00;;;;;;5059005;28;20489;-79
2022/08/09 05:25:37;;;;;;;6.77;2.90;;;23.40;53.60;;;;;;5055573;28;20459;-79
2022/08/09 05:28:08;;;;;;;5.63;2.60;;;24.50;52.20;;;;;;5076927;28;21106;-79
2022/08/09 05:30:36;;;;;;;8.83;2.30;;;25.50;51.30;;;;;;5077338;28;20467;-80
2022/08/09 05:33:08;;;;;;;5.97;2.80;;;26.40;50.50;;;;;;5057125;28;20475;-78
2022/08/09 05:35:37;;;;;;;8.50;3.00;;;27.20;49.80;;;;;;5071297;28;20820;-78
2022/08/09 05:38:18;;;;;;;6.07;2.30;;;28.00;49.00;;;;;;5072523;28;20458;-77
2022/08/09 05:40:49;;;;;;;9.90;2.90;;;28.80;48.30;;;;;;5071734;28;20459;-79
2022/08/09 05:43:17;;;;;;;6.50;2.30;;;29.40;47.60;;;;;;5075466;28;20467;-77
2022/08/09 05:45:46;;;;;;;9.10;2.57;;;30.00;47.00;;;;;;5078807;28;21004;-77
2022/08/09 05:48:24;;;;;;;21.00;3.10;;;30.70;46.40;;;;;;5076170;28;20452;-80
2022/08/09 05:51:00;;;;;;;23.43;3.73;;;31.20;45.50;;;;;;5075948;28;20456;-79
2022/08/09 05:53:49;;;;;;;47.37;4.37;;;31.70;44.70;;;;;;5081463;28;20466;-79
2022/08/09 05:56:25;;;;;;;19.23;3.00;;;32.10;44.00;;;;;;5094618;28;20518;-80
2022/08/09 05:58:56;;;;;;;8.10;2.17;;;32.50;43.30;;;;;;5067418;28;20453;-81
2022/08/09 06:01:26;;;;;;;10.23;2.90;;;32.90;42.70;;;;;;5092025;28;20482;-80
2022/08/09 06:04:09;;;;;;;5.27;2.13;;;33.30;42.00;;;;;;5086689;28;20990;-80
2022/08/09 06:06:39;;;;;;;7.60;2.10;;;33.70;41.50;;;;;;5070119;28;20512;-79
2022/08/09 06:09:18;;;;;;;9.77;2.87;;;34.10;40.90;;;;;;5074868;28;20945;-79
2022/08/09 06:12:06;;;;;;;13.03;2.63;;;33.80;39.70;;;;;;5082568;28;21042;-78
2022/08/09 06:14:35;;;;;;;6.60;2.50;;;32.20;39.80;;;;;;5082257;28;20475;-81
2022/08/09 06:17:03;;;;;;;5.07;2.40;;;30.50;40.50;;;;;;5079800;28;20492;-81
2022/08/09 06:19:36;;;;;;;7.50;2.50;;;28.90;41.50;;;;;;5083131;28;21214;-80
2022/08/09 06:22:05;;;;;;;14.80;3.37;;;27.60;42.70;;;;;;5076409;28;21025;-80
2022/08/09 06:24:43;;;;;;;6.10;2.50;;;26.50;43.70;;;;;;5079133;28;20556;-80
2022/08/09 06:27:11;;;;;;;9.27;2.50;;;25.70;44.80;;;;;;5080128;28;20441;-79
2022/08/09 06:29:43;;;;;;;8.60;2.77;;;25.10;45.50;;;;;;5075756;28;20451;-80
2022/08/09 06:32:25;;;;;;;7.33;2.53;;;24.60;46.30;;;;;;5077049;28;20510;-80
2022/08/09 06:35:13;;;;;;;6.37;2.83;;;24.20;47.00;;;;;;5079886;28;20462;-79
2022/08/09 06:37:41;;;;;;;5.00;2.43;;;23.90;47.50;;;;;;5077384;28;20565;-79
2022/08/09 06:40:31;;;;;;;9.73;3.23;;;23.70;48.10;;;;;;5064745;28;20468;-80
2022/08/09 06:43:00;;;;;;;4.60;2.37;;;23.50;48.60;;;;;;5083739;28;21066;-79
2022/08/09 06:45:29;;;;;;;6.30;2.70;;;23.30;48.80;;;;;;5083155;28;20539;-81
2022/08/09 06:48:17;;;;;;;8.07;2.30;;;23.20;49.20;;;;;;5082612;28;20456;-81
2022/08/09 06:50:58;;;;;;;4.50;2.20;;;23.00;49.50;;;;;;5061987;28;20463;-81
2022/08/09 06:53:26;;;;;;;6.17;2.53;;;23.00;49.90;;;;;;5074560;28;20517;-82
2022/08/09 06:56:07;;;;;;;6.53;2.33;;;22.90;50.10;;;;;;5078910;28;20458;-79
2022/08/09 06:58:36;;;;;;;6.27;2.60;;;22.90;50.40;;;;;;5076775;28;20445;-81
2022/08/09 07:01:24;;;;;;;5.17;2.10;;;22.90;50.50;;;;;;5093107;28;20491;-80
2022/08/09 07:04:12;;;;;;;6.10;2.53;;;22.90;50.70;;;;;;5080959;28;20469;-80
2022/08/09 07:06:47;;;;;;;5.47;2.37;;;22.90;50.80;;;;;;5078919;28;20450;-80
2022/08/09 07:09:20;;;;;;;6.43;2.20;;;22.90;50.90;;;;;;5077264;28;20461;-80
2022/08/09 07:12:09;;;;;;;6.73;2.17;;;22.90;51.10;;;;;;5078773;28;20477;-80
2022/08/09 07:14:45;;;;;;;8.83;3.00;;;22.90;51.30;;;;;;5078769;28;20545;-80
2022/08/09 07:17:18;;;;;;;7.10;2.43;;;23.00;51.40;;;;;;5076041;28;21179;-80
2022/08/09 07:19:46;;;;;;;9.20;2.50;;;23.00;51.50;;;;;;5079535;28;20498;-80
2022/08/09 07:22:22;;;;;;;5.00;1.90;;;23.10;51.50;;;;;;5080298;28;20894;-81
2022/08/09 07:25:02;;;;;;;5.43;2.40;;;23.10;51.60;;;;;;5077062;28;20470;-80
2022/08/09 07:27:37;;;;;;;5.10;2.17;;;23.20;51.70;;;;;;5067245;28;20461;-81
2022/08/09 07:30:20;;;;;;;4.93;2.10;;;23.20;51.70;;;;;;5078875;28;20445;-79
2022/08/09 07:32:52;;;;;;;6.53;2.20;;;23.20;51.80;;;;;;5081960;28;20971;-81
2022/08/09 07:35:22;;;;;;;6.13;2.60;;;23.20;51.90;;;;;;5078776;28;20467;-81
2022/08/09 07:37:52;;;;;;;6.50;2.60;;;23.30;51.90;;;;;;5063726;28;20460;-80
2022/08/09 07:40:27;;;;;;;11.23;2.20;;;23.40;51.90;;;;;;5067436;28;20456;-80
2022/08/09 07:43:16;;;;;;;4.30;2.10;;;23.40;51.90;;;;;;5080147;28;20463;-80
2022/08/09 07:45:44;;;;;;;6.93;2.50;;;23.50;51.80;;;;;;5078752;28;20996;-80
2022/08/09 07:48:14;;;;;;;5.70;2.27;;;23.60;51.80;;;;;;5080193;28;20500;-77
2022/08/09 07:50:59;;;;;;;6.47;2.03;;;23.60;51.80;;;;;;5075693;28;20556;-77
2022/08/09 07:53:47;;;;;;;7.13;2.13;;;23.70;51.70;;;;;;5094397;28;20488;-76
2022/08/09 07:56:35;;;;;;;5.90;2.73;;;23.80;51.70;;;;;;5076729;28;20466;-76
2022/08/09 07:59:18;;;;;;;5.00;2.23;;;23.90;51.70;;;;;;5076175;28;21013;-77
2022/08/09 08:02:01;;;;;;;4.93;2.17;;;24.00;51.70;;;;;;5078224;28;20475;-77
2022/08/09 08:04:31;;;;;;;6.83;2.30;;;24.00;51.60;;;;;;5076317;28;20460;-78
2022/08/09 08:07:02;;;;;;;5.87;2.10;;;24.10;51.50;;;;;;5077533;28;21168;-78
2022/08/09 08:09:50;;;;;;;7.80;2.10;;;24.20;51.50;;;;;;5073058;28;20468;-78
2022/08/09 08:12:35;;;;;;;6.23;2.43;;;24.20;51.40;;;;;;5077124;28;20518;-76
2022/08/09 08:15:14;;;;;;;5.70;2.33;;;24.30;51.30;;;;;;5078132;28;20620;-78
2022/08/09 08:17:44;;;;;;;6.83;2.47;;;24.40;51.30;;;;;;5074947;28;20486;-76
2022/08/09 08:20:24;;;;;;;6.77;2.63;;;24.50;51.00;;;;;;5073276;28;20580;-78
2022/08/09 08:22:59;;;;;;;6.10;2.03;;;24.50;51.00;;;;;;5080062;28;20483;-78
2022/08/09 08:25:33;;;;;;;12.80;2.43;;;24.60;50.90;;;;;;5060393;28;20447;-77
2022/08/09 08:28:13;;;;;;;4.47;1.77;;;24.70;50.80;;;;;;5075166;28;20475;-77
2022/08/09 08:30:46;;;;;;;5.57;2.03;;;24.70;50.70;;;;;;5076297;28;20523;-75
2022/08/09 08:33:15;;;;;;;6.30;2.13;;;24.80;50.60;;;;;;5075924;28;20563;-77
2022/08/09 08:35:52;;;;;;;6.10;2.30;;;24.80;50.50;;;;;;5077854;28;20511;-77
2022/08/09 08:38:28;;;;;;;6.23;2.50;;;24.90;50.40;;;;;;5075472;28;20922;-76
2022/08/09 08:40:57;;;;;;;4.90;2.20;;;25.00;50.40;;;;;;5075657;28;20468;-78
2022/08/09 08:43:26;;;;;;;6.10;1.90;;;25.00;50.30;;;;;;5064320;28;20470;-77
2022/08/09 08:46:00;;;;;;;4.50;1.90;;;25.00;50.30;;;;;;5073360;28;20527;-76
2022/08/09 08:48:50;;;;;;;6.90;2.20;;;25.10;50.10;;;;;;5077409;28;20508;-77
2022/08/09 08:51:21;;;;;;;5.03;1.90;;;25.20;49.90;;;;;;5093272;28;20501;-77
2022/08/09 08:53:51;;;;;;;6.63;1.83;;;25.30;49.70;;;;;;5075922;28;20499;-77
2022/08/09 08:56:34;;;;;;;5.43;2.10;;;25.30;49.60;;;;;;5056898;28;20540;-77
2022/08/09 08:59:05;;;;;;;5.20;2.40;;;25.40;49.60;;;;;;5077763;28;20505;-77
2022/08/09 09:01:49;;;;;;;5.50;2.23;;;25.50;49.10;;;;;;5076523;28;21074;-77
2022/08/09 09:04:29;;;;;;;6.20;2.07;;;25.50;48.90;;;;;;5071041;28;20483;-77
2022/08/09 09:07:01;;;;;;;4.27;1.80;;;25.60;48.80;;;;;;5070390;28;20451;-77
2022/08/09 09:09:30;;;;;;;5.60;2.10;;;25.70;48.50;;;;;;5060479;28;20462;-76
2022/08/09 09:12:20;;;;;;;5.17;2.20;;;25.70;48.30;;;;;;5072236;28;20468;-77
2022/08/09 09:14:49;;;;;;;14.37;2.60;;;25.80;48.20;;;;;;5072833;28;20460;-76
2022/08/09 09:17:20;;;;;;;7.17;2.13;;;25.80;48.10;;;;;;5063669;28;20467;-78
2022/08/09 09:19:48;;;;;;;6.83;2.20;;;25.80;47.90;;;;;;5078893;28;20467;-78
2022/08/09 09:22:19;;;;;;;4.40;2.07;;;25.90;47.70;;;;;;5080393;28;20488;-76
2022/08/09 09:25:01;;;;;;;5.87;2.57;;;25.90;47.70;;;;;;5075580;28;21141;-77
2022/08/09 09:27:56;;;;;;;4.73;2.30;;;25.90;47.60;;;;;;5075925;28;20550;-77
2022/08/09 09:30:34;;;;;;;6.53;2.50;;;26.00;47.60;;;;;;5063455;28;20478;-76
2022/08/09 09:33:11;;;;;;;6.53;1.80;;;26.00;47.50;;;;;;5074164;28;20468;-78
2022/08/09 09:35:55;;;;;;;5.30;2.17;;;26.00;47.40;;;;;;5072690;28;21441;-76
2022/08/09 09:38:45;;;;;;;6.03;1.90;;;26.10;47.40;;;;;;5060324;28;20475;-78
2022/08/09 09:41:29;;;;;;;6.50;2.30;;;26.10;47.30;;;;;;5065912;28;20488;-76
2022/08/09 09:44:22;;;;;;;5.20;2.00;;;26.10;47.30;;;;;;5075225;28;20503;-78
2022/08/09 09:47:07;;;;;;;4.60;2.07;;;26.10;47.30;;;;;;5074716;28;20464;-78
2022/08/09 09:49:38;;;;;;;6.23;2.10;;;26.20;46.90;;;;;;5074834;28;20543;-76
2022/08/09 09:52:26;;;;;;;7.73;2.20;;;26.20;47.00;;;;;;5076660;28;20495;-78
2022/08/09 09:55:07;;;;;;;6.50;2.33;;;26.30;47.00;;;;;;5073876;28;20973;-76
2022/08/09 09:57:59;;;;;;;7.90;2.40;;;26.30;46.90;;;;;;5071815;28;20464;-77
2022/08/09 10:00:47;;;;;;;6.23;2.40;;;26.40;46.80;;;;;;5074866;28;20524;-77
2022/08/09 10:03:42;;;;;;;6.53;2.20;;;26.40;46.80;;;;;;5075933;28;20535;-78
2022/08/09 10:06:24;;;;;;;4.40;1.90;;;26.40;46.60;;;;;;5077595;28;20448;-77
2022/08/09 10:09:00;;;;;;;8.00;2.23;;;26.50;46.60;;;;;;5076572;28;20460;-77
2022/08/09 10:11:39;;;;;;;4.80;2.30;;;26.50;46.60;;;;;;5064620;28;21188;-77
2022/08/09 10:14:29;;;;;;;5.03;2.40;;;26.60;46.50;;;;;;5077672;28;20461;-77
2022/08/09 10:17:10;;;;;;;6.13;1.90;;;26.60;46.50;;;;;;5074530;28;21049;-77
2022/08/09 10:19:58;;;;;;;8.53;2.60;;;26.70;46.30;;;;;;5068549;28;21119;-78
2022/08/09 10:22:36;;;;;;;5.00;2.10;;;26.70;46.20;;;;;;5073246;28;20485;-77
2022/08/09 10:25:08;;;;;;;7.07;2.10;;;26.70;46.00;;;;;;5077133;28;20467;-77
2022/08/09 10:27:42;;;;;;;5.20;2.23;;;26.70;45.90;;;;;;5076973;28;20462;-77
2022/08/09 10:30:23;;;;;;;4.77;2.00;;;26.70;45.80;;;;;;5071687;28;20541;-78
2022/08/09 10:33:12;;;;;;;5.50;2.10;;;26.70;45.80;;;;;;5055141;28;20472;-77
2022/08/09 10:36:00;;;;;;;4.10;1.83;;;26.80;45.60;;;;;;5075498;28;20471;-77
2022/08/09 10:38:30;;;;;;;6.53;1.87;;;26.90;45.30;;;;;;5078535;28;20492;-78
2022/08/09 10:41:19;;;;;;;5.63;2.10;;;27.00;45.30;;;;;;5056912;28;20484;-77
2022/08/09 10:43:50;;;;;;;4.30;1.90;;;27.00;45.20;;;;;;5070821;28;20462;-77
2022/08/09 10:46:51;;;;;;;5.30;2.00;;;27.10;45.00;;;;;;5077737;28;20533;-78
2022/08/09 10:49:34;;;;;;;6.53;2.03;;;27.10;44.70;;;;;;5078911;28;20476;-78
2022/08/09 10:52:39;;;;;;;11.87;2.50;;;27.10;44.80;;;;;;5078479;28;20485;-78
2022/08/09 10:55:23;;;;;;;6.80;2.30;;;27.10;44.70;;;;;;5079913;28;20461;-77
2022/08/09 10:57:52;;;;;;;9.50;1.93;;;27.20;44.60;;;;;;5084012;28;20448;-77
2022/08/09 11:00:38;;;;;;;5.30;2.00;;;27.20;44.70;;;;;;5078925;28;20531;-77
2022/08/09 11:03:25;;;;;;;10.37;1.93;;;27.20;44.60;;;;;;5091036;27;20454;-77
2022/08/09 11:06:24;;;;;;;6.00;1.80;;;27.20;44.60;;;;;;5063414;28;20465;-78
2022/08/09 11:08:53;;;;;;;4.00;1.70;;;27.30;44.10;;;;;;5062461;28;20520;-77
2022/08/09 11:12:06;;;;;;;5.50;2.00;;;27.30;44.20;;;;;;5063862;28;20565;-77
2022/08/09 11:14:37;;;;;;;5.43;2.10;;;27.30;44.10;;;;;;5080045;28;20454;-77
2022/08/09 11:17:50;;;;;;;9.80;2.00;;;27.30;44.30;;;;;;5076434;28;20485;-77
2022/08/09 11:20:41;;;;;;;7.77;2.00;;;27.40;44.30;;;;;;5095557;28;20997;-76
2022/08/09 11:23:11;;;;;;;7.30;2.03;;;27.40;44.20;;;;;;5073994;28;20526;-77
2022/08/09 11:25:43;;;;;;;8.03;2.13;;;27.40;44.00;;;;;;5077516;28;20453;-77
2022/08/09 11:28:36;;;;;;;4.10;1.73;;;27.40;44.00;;;;;;5075622;28;20459;-77
2022/08/09 11:31:46;;;;;;;4.90;2.30;;;27.40;43.70;;;;;;5075922;28;20481;-77
2022/08/09 11:34:29;;;;;;;4.60;1.87;;;27.50;43.70;;;;;;5092523;28;20947;-77
2022/08/09 11:36:58;;;;;;;5.43;2.40;;;27.50;43.70;;;;;;5076554;28;20461;-77
2022/08/09 11:39:26;;;;;;;4.70;1.97;;;27.50;43.70;;;;;;5076212;28;20476;-77
2022/08/09 11:42:08;;;;;;;5.37;2.30;;;27.60;43.80;;;;;;5056900;28;20486;-77
2022/08/09 11:44:47;;;;;;;5.00;2.00;;;27.60;43.90;;;;;;5089749;28;20454;-77
2022/08/09 11:47:16;;;;;;;9.00;2.10;;;27.70;43.80;;;;;;5074891;28;20543;-77
2022/08/09 11:50:02;;;;;;;4.47;1.80;;;27.70;43.70;;;;;;5072482;28;20458;-77
2022/08/09 11:53:21;;;;;;;4.50;1.83;;;27.60;43.70;;;;;;5081271;28;20503;-77
2022/08/09 11:56:26;;;;;;;5.07;1.73;;;27.60;43.60;;;;;;5066956;28;20465;-78
2022/08/09 11:59:26;;;;;;;4.60;1.80;;;27.60;43.50;;;;;;5060961;28;20905;-77
2022/08/09 12:02:02;;;;;;;10.03;2.10;;;27.70;43.50;;;;;;5078797;28;20514;-77
2022/08/09 12:04:52;;;;;;;4.77;2.10;;;27.70;43.50;;;;;;5075258;28;20933;-77
2022/08/09 12:07:28;;;;;;;7.70;2.17;;;27.80;43.50;;;;;;5072402;28;20472;-78
2022/08/09 12:10:10;;;;;;;6.40;1.70;;;27.80;43.50;;;;;;5079394;28;20502;-76
2022/08/09 12:12:59;;;;;;;5.63;2.13;;;27.90;43.40;;;;;;5080372;28;20474;-77
2022/08/09 12:15:30;;;;;;;5.70;2.47;;;27.90;43.40;;;;;;5079243;28;21016;-76
2022/08/09 12:18:18;;;;;;;5.50;1.87;;;27.90;43.40;;;;;;5076633;28;20869;-78
2022/08/09 12:20:58;;;;;;;6.30;2.13;;;27.90;43.40;;;;;;5075131;28;20473;-78
2022/08/09 12:23:29;;;;;;;7.73;1.90;;;27.90;43.40;;;;;;5072640;28;20462;-76
2022/08/09 12:26:18;;;;;;;5.30;2.20;;;27.80;43.50;;;;;;5074305;28;20473;-77
2022/08/09 12:28:55;;;;;;;4.77;2.00;;;27.90;43.60;;;;;;5080971;28;20453;-78
2022/08/09 12:31:39;;;;;;;5.80;1.93;;;28.00;43.60;;;;;;5079417;28;20483;-76
2022/08/09 12:34:33;;;;;;;6.70;2.20;;;28.00;43.30;;;;;;5068364;28;20842;-78
2022/08/09 12:37:03;;;;;;;7.27;2.60;;;28.10;43.30;;;;;;5080553;28;20457;-76
2022/08/09 12:40:06;;;;;;;4.80;1.73;;;28.00;43.30;;;;;;5082515;28;20507;-76
2022/08/09 12:42:35;;;;;;;8.13;2.20;;;28.00;43.20;;;;;;5083277;28;20537;-76
2022/08/09 12:45:05;;;;;;;7.00;1.90;;;28.00;43.30;;;;;;5079230;28;20474;-77
2022/08/09 12:47:53;;;;;;;5.63;2.30;;;27.90;43.30;;;;;;5075456;28;20463;-78
2022/08/09 12:50:24;;;;;;;6.67;1.97;;;28.00;43.50;;;;;;5078997;28;20455;-77
2022/08/09 12:52:52;;;;;;;9.00;2.13;;;28.00;43.50;;;;;;5075309;28;20483;-78
2022/08/09 12:55:40;;;;;;;6.43;2.07;;;28.10;43.50;;;;;;5073865;28;20976;-77
2022/08/09 12:58:28;;;;;;;5.70;2.17;;;28.20;43.50;;;;;;5073143;28;20460;-77
2022/08/09 13:00:56;;;;;;;7.63;2.33;;;28.20;43.40;;;;;;5069573;28;20489;-77
2022/08/09 13:03:28;;;;;;;7.70;2.23;;;28.20;43.50;;;;;;5071695;28;20529;-77
2022/08/09 13:06:37;;;;;;;5.00;2.07;;;28.20;43.40;;;;;;5058595;28;20460;-77
2022/08/09 13:12:53;;;;;;;4.87;2.20;;;28.40;43.20;;;;;;5078468;28;21099;-78
2022/08/09 13:15:51;;;;;;;4.93;1.63;;;28.40;43.20;;;;;;5078213;28;20508;-77
2022/08/09 13:18:20;;;;;;;7.63;2.20;;;28.50;43.10;;;;;;5072786;28;20452;-77
2022/08/09 13:20:55;;;;;;;4.67;2.10;;;28.50;43.10;;;;;;5072552;28;20521;-77
2022/08/09 13:23:44;;;;;;;6.20;2.13;;;28.40;43.10;;;;;;5074128;28;20473;-77
2022/08/09 13:26:34;;;;;;;8.37;2.40;;;28.40;43.10;;;;;;5070564;28;20468;-76
2022/08/09 13:29:10;;;;;;;6.10;2.00;;;28.40;43.20;;;;;;5064549;28;20546;-77
2022/08/09 13:31:56;;;;;;;8.77;2.20;;;28.40;43.10;;;;;;5074009;28;20501;-77
2022/08/09 13:34:44;;;;;;;6.07;2.60;;;28.40;43.10;;;;;;5056868;28;20467;-77
2022/08/09 13:37:13;;;;;;;6.30;1.90;;;28.40;43.20;;;;;;5073903;28;20452;-77
2022/08/09 13:40:03;;;;;;;4.90;2.07;;;28.40;43.10;;;;;;5080137;28;20475;-77
2022/08/09 13:42:51;;;;;;;4.77;1.90;;;28.40;43.20;;;;;;5074255;28;20487;-77
2022/08/09 13:45:20;;;;;;;6.77;2.53;;;28.50;43.30;;;;;;5075915;28;20541;-77
2022/08/09 13:47:59;;;;;;;6.50;2.43;;;28.50;43.20;;;;;;5079096;28;20507;-77
2022/08/09 13:50:28;;;;;;;5.80;2.13;;;28.60;43.20;;;;;;5074241;28;20489;-77
2022/08/09 13:52:58;;;;;;;5.43;2.17;;;28.60;43.10;;;;;;5057241;28;20717;-77